sensor_id;sensor_type;location;lat;lon;timestamp;pressure;altitude;pressure_sealevel;temperature;humidity
22653;BME280;11493;43.344;26.226;2023-02-23T00:01:26;99232.88;;;4.99;90.37
22653;BME280;11493;43.344;26.226;2023-02-23T00:03:55;99239.97;;;5.00;90.29
22653;BME280;11493;43.344;26.226;2023-02-23T00:06:24;99240.28;;;4.93;90.50
22653;BME280;11493;43.344;26.226;2023-02-23T00:08:51;99229.94;;;4.90;90.57
22653;BME280;11493;43.344;26.226;2023-02-23T00:11:19;99239.41;;;5.03;90.58
22653;BME280;11493;43.344;26.226;2023-02-23T00:13:48;99228.56;;;4.93;90.21
22653;BME280;11493;43.344;26.226;2023-02-23T00:16:22;99235.66;;;4.89;90.68
22653;BME280;11493;43.344;26.226;2023-02-23T00:18:54;99240.56;;;4.87;91.04
22653;BME280;11493;43.344;26.226;2023-02-23T00:21:26;99243.84;;;4.89;91.30
22653;BME280;11493;43.344;26.226;2023-02-23T00:24:13;99235.16;;;4.77;91.46
22653;BME280;11493;43.344;26.226;2023-02-23T00:26:46;99225.94;;;4.68;92.11
22653;BME280;11493;43.344;26.226;2023-02-23T00:29:17;99239.25;;;4.79;92.12
22653;BME280;11493;43.344;26.226;2023-02-23T00:31:46;99236.25;;;4.81;92.07
22653;BME280;11493;43.344;26.226;2023-02-23T00:34:15;99238.94;;;4.86;91.59
22653;BME280;11493;43.344;26.226;2023-02-23T00:36:49;99239.47;;;4.88;91.61
22653;BME280;11493;43.344;26.226;2023-02-23T00:39:17;99223.19;;;4.73;91.71
22653;BME280;11493;43.344;26.226;2023-02-23T00:41:48;99221.84;;;4.65;92.62
22653;BME280;11493;43.344;26.226;2023-02-23T00:44:15;99234.13;;;4.62;92.89
22653;BME280;11493;43.344;26.226;2023-02-23T00:46:44;99232.22;;;4.63;92.88
22653;BME280;11493;43.344;26.226;2023-02-23T00:49:12;99236.88;;;4.52;93.34
22653;BME280;11493;43.344;26.226;2023-02-23T00:51:40;99232.03;;;4.44;93.97
22653;BME280;11493;43.344;26.226;2023-02-23T00:54:09;99222.25;;;4.38;94.32
22653;BME280;11493;43.344;26.226;2023-02-23T00:56:38;99220.06;;;4.35;94.13
22653;BME280;11493;43.344;26.226;2023-02-23T00:59:05;99222.25;;;4.33;93.72
22653;BME280;11493;43.344;26.226;2023-02-23T01:01:32;99224.97;;;4.33;94.27
22653;BME280;11493;43.344;26.226;2023-02-23T01:04:00;99203.22;;;4.18;94.52
22653;BME280;11493;43.344;26.226;2023-02-23T01:06:27;99219.81;;;4.26;94.49
22653;BME280;11493;43.344;26.226;2023-02-23T01:08:56;99215.19;;;4.22;94.35
22653;BME280;11493;43.344;26.226;2023-02-23T01:11:26;99221.75;;;4.16;94.49
22653;BME280;11493;43.344;26.226;2023-02-23T01:13:56;99231.28;;;4.13;94.71
22653;BME280;11493;43.344;26.226;2023-02-23T01:16:27;99217.69;;;3.98;95.05
22653;BME280;11493;43.344;26.226;2023-02-23T01:18:56;99227.47;;;4.04;95.34
22653;BME280;11493;43.344;26.226;2023-02-23T01:21:27;99219.31;;;3.99;95.39
22653;BME280;11493;43.344;26.226;2023-02-23T01:23:54;99228.03;;;4.06;95.58
22653;BME280;11493;43.344;26.226;2023-02-23T01:26:30;99214.94;;;4.03;95.61
22653;BME280;11493;43.344;26.226;2023-02-23T01:28:59;99226.94;;;4.07;95.53
22653;BME280;11493;43.344;26.226;2023-02-23T01:31:28;99228.00;;;4.11;95.41
22653;BME280;11493;43.344;26.226;2023-02-23T01:33:57;99207.63;;;3.99;95.42
22653;BME280;11493;43.344;26.226;2023-02-23T01:36:26;99220.13;;;4.00;94.97
22653;BME280;11493;43.344;26.226;2023-02-23T01:38:55;99225.31;;;3.96;95.06
22653;BME280;11493;43.344;26.226;2023-02-23T01:41:24;99221.78;;;3.90;95.43
22653;BME280;11493;43.344;26.226;2023-02-23T01:43:58;99220.69;;;3.81;95.68
22653;BME280;11493;43.344;26.226;2023-02-23T01:46:25;99210.91;;;3.80;95.62
22653;BME280;11493;43.344;26.226;2023-02-23T01:48:53;99203.84;;;3.69;95.81
22653;BME280;11493;43.344;26.226;2023-02-23T01:51:25;99223.69;;;3.75;96.01
22653;BME280;11493;43.344;26.226;2023-02-23T01:54:04;99232.66;;;3.80;95.64
22653;BME280;11493;43.344;26.226;2023-02-23T01:56:35;99229.94;;;3.75;95.75
22653;BME280;11493;43.344;26.226;2023-02-23T01:59:11;99227.53;;;3.69;95.13
22653;BME280;11493;43.344;26.226;2023-02-23T02:01:41;99217.44;;;3.59;95.41
22653;BME280;11493;43.344;26.226;2023-02-23T02:04:10;99228.88;;;3.61;95.39
22653;BME280;11493;43.344;26.226;2023-02-23T02:06:44;99232.13;;;3.48;95.05
22653;BME280;11493;43.344;26.226;2023-02-23T02:09:15;99237.84;;;3.41;96.05
22653;BME280;11493;43.344;26.226;2023-02-23T02:11:44;99234.84;;;3.38;96.84
22653;BME280;11493;43.344;26.226;2023-02-23T02:14:18;99228.59;;;3.37;96.54
22653;BME280;11493;43.344;26.226;2023-02-23T02:25:45;99226.13;;;3.36;96.71
22653;BME280;11493;43.344;26.226;2023-02-23T02:28:40;99239.75;;;3.41;97.48
22653;BME280;11493;43.344;26.226;2023-02-23T02:31:36;99240.28;;;3.38;98.13
22653;BME280;11493;43.344;26.226;2023-02-23T02:37:18;99226.13;;;3.25;98.17
22653;BME280;11493;43.344;26.226;2023-02-23T02:40:21;99235.38;;;3.29;98.01
22653;BME280;11493;43.344;26.226;2023-02-23T02:45:35;99242.44;;;3.36;97.92
22653;BME280;11493;43.344;26.226;2023-02-23T02:48:22;99255.50;;;3.34;97.69
22653;BME280;11493;43.344;26.226;2023-02-23T02:50:56;99258.50;;;3.37;97.41
22653;BME280;11493;43.344;26.226;2023-02-23T02:53:38;99253.03;;;3.27;97.39
22653;BME280;11493;43.344;26.226;2023-02-23T02:56:08;99243.22;;;3.16;97.37
22653;BME280;11493;43.344;26.226;2023-02-23T02:58:37;99244.84;;;3.17;97.01
22653;BME280;11493;43.344;26.226;2023-02-23T03:01:11;99256.81;;;3.16;97.33
22653;BME280;11493;43.344;26.226;2023-02-23T03:04:00;99259.28;;;3.17;97.04
22653;BME280;11493;43.344;26.226;2023-02-23T03:06:52;99239.41;;;2.96;96.88
22653;BME280;11493;43.344;26.226;2023-02-23T03:10:11;99248.91;;;3.09;97.39
22653;BME280;11493;43.344;26.226;2023-02-23T03:16:04;99268.75;;;3.05;96.71
22653;BME280;11493;43.344;26.226;2023-02-23T03:33:58;99268.97;;;2.83;97.76
22653;BME280;11493;43.344;26.226;2023-02-23T03:36:51;99266.72;;;2.70;97.57
22653;BME280;11493;43.344;26.226;2023-02-23T03:39:46;99277.59;;;2.70;98.06
22653;BME280;11493;43.344;26.226;2023-02-23T03:42:36;99276.25;;;2.72;98.12
22653;BME280;11493;43.344;26.226;2023-02-23T03:45:23;99267.78;;;2.63;97.83
22653;BME280;11493;43.344;26.226;2023-02-23T03:48:12;99273.78;;;2.71;97.70
22653;BME280;11493;43.344;26.226;2023-02-23T03:51:05;99251.97;;;2.50;97.85
22653;BME280;11493;43.344;26.226;2023-02-23T03:54:07;99270.72;;;2.52;98.23
22653;BME280;11493;43.344;26.226;2023-02-23T03:56:57;99252.75;;;2.46;98.57
22653;BME280;11493;43.344;26.226;2023-02-23T03:59:47;99278.59;;;2.53;98.34
22653;BME280;11493;43.344;26.226;2023-02-23T04:02:44;99267.97;;;2.47;98.64
22653;BME280;11493;43.344;26.226;2023-02-23T04:05:34;99274.78;;;2.49;98.24
22653;BME280;11493;43.344;26.226;2023-02-23T04:08:24;99271.97;;;2.34;97.97
22653;BME280;11493;43.344;26.226;2023-02-23T04:14:15;99262.16;;;2.28;98.08
22653;BME280;11493;43.344;26.226;2023-02-23T04:16:42;99285.59;;;2.44;98.70
22653;BME280;11493;43.344;26.226;2023-02-23T04:19:11;99267.63;;;2.33;98.67
22653;BME280;11493;43.344;26.226;2023-02-23T04:21:38;99279.00;;;2.30;99.13
22653;BME280;11493;43.344;26.226;2023-02-23T04:24:05;99277.88;;;2.26;99.47
22653;BME280;11493;43.344;26.226;2023-02-23T04:26:32;99273.28;;;2.26;99.41
22653;BME280;11493;43.344;26.226;2023-02-23T04:28:59;99261.03;;;2.19;99.19
22653;BME280;11493;43.344;26.226;2023-02-23T04:31:26;99280.59;;;2.26;99.01
22653;BME280;11493;43.344;26.226;2023-02-23T04:33:53;99278.69;;;2.21;99.08
22653;BME280;11493;43.344;26.226;2023-02-23T04:36:20;99280.59;;;2.21;99.21
22653;BME280;11493;43.344;26.226;2023-02-23T04:38:47;99280.59;;;2.21;98.72
22653;BME280;11493;43.344;26.226;2023-02-23T04:41:14;99289.25;;;2.23;99.07
22653;BME280;11493;43.344;26.226;2023-02-23T04:43:40;99288.19;;;2.24;98.81
22653;BME280;11493;43.344;26.226;2023-02-23T04:46:08;99286.53;;;2.18;98.96
22653;BME280;11493;43.344;26.226;2023-02-23T04:48:35;99283.81;;;2.18;99.23
22653;BME280;11493;43.344;26.226;2023-02-23T04:51:02;99300.66;;;2.20;99.22
22653;BME280;11493;43.344;26.226;2023-02-23T04:53:29;99277.28;;;2.14;99.42
22653;BME280;11493;43.344;26.226;2023-02-23T04:55:57;99286.03;;;2.26;99.29
22653;BME280;11493;43.344;26.226;2023-02-23T04:58:24;99301.53;;;2.30;98.69
22653;BME280;11493;43.344;26.226;2023-02-23T05:00:50;99292.28;;;2.21;98.56
22653;BME280;11493;43.344;26.226;2023-02-23T05:03:18;99278.66;;;2.16;98.84
22653;BME280;11493;43.344;26.226;2023-02-23T05:05:45;99300.19;;;2.33;98.62
22653;BME280;11493;43.344;26.226;2023-02-23T05:08:12;99307.22;;;2.29;98.57
22653;BME280;11493;43.344;26.226;2023-02-23T05:10:39;99311.59;;;2.35;98.68
22653;BME280;11493;43.344;26.226;2023-02-23T05:13:06;99318.72;;;2.41;98.60
22653;BME280;11493;43.344;26.226;2023-02-23T05:15:33;99314.63;;;2.39;98.41
22653;BME280;11493;43.344;26.226;2023-02-23T05:18:00;99325.78;;;2.42;97.98
22653;BME280;11493;43.344;26.226;2023-02-23T05:20:27;99328.47;;;2.37;97.86
22653;BME280;11493;43.344;26.226;2023-02-23T05:22:54;99332.84;;;2.43;98.16
22653;BME280;11493;43.344;26.226;2023-02-23T05:25:21;99317.59;;;2.37;98.71
22653;BME280;11493;43.344;26.226;2023-02-23T05:27:48;99323.09;;;2.47;98.81
22653;BME280;11493;43.344;26.226;2023-02-23T05:30:16;99331.06;;;2.64;98.80
22653;BME280;11493;43.344;26.226;2023-02-23T05:32:43;99338.47;;;2.74;97.94
22653;BME280;11493;43.344;26.226;2023-02-23T05:35:10;99342.78;;;2.70;98.06
22653;BME280;11493;43.344;26.226;2023-02-23T05:37:37;99347.16;;;2.71;98.94
22653;BME280;11493;43.344;26.226;2023-02-23T05:40:05;99338.75;;;2.77;98.80
22653;BME280;11493;43.344;26.226;2023-02-23T05:42:32;99331.41;;;2.73;98.77
22653;BME280;11493;43.344;26.226;2023-02-23T05:44:59;99339.25;;;2.69;99.17
22653;BME280;11493;43.344;26.226;2023-02-23T05:47:26;99349.69;;;2.87;99.58
22653;BME280;11493;43.344;26.226;2023-02-23T05:49:53;99363.84;;;2.94;98.81
22653;BME280;11493;43.344;26.226;2023-02-23T05:52:23;99369.03;;;3.01;98.89
22653;BME280;11493;43.344;26.226;2023-02-23T05:54:50;99374.78;;;3.10;98.55
22653;BME280;11493;43.344;26.226;2023-02-23T05:57:17;99380.84;;;3.27;97.68
22653;BME280;11493;43.344;26.226;2023-02-23T05:59:45;99376.25;;;3.33;97.38
22653;BME280;11493;43.344;26.226;2023-02-23T06:02:12;99379.53;;;3.40;96.99
22653;BME280;11493;43.344;26.226;2023-02-23T06:04:39;99390.19;;;3.56;96.95
22653;BME280;11493;43.344;26.226;2023-02-23T06:07:07;99402.75;;;3.68;96.23
22653;BME280;11493;43.344;26.226;2023-02-23T06:09:34;99395.97;;;3.80;95.86
22653;BME280;11493;43.344;26.226;2023-02-23T06:12:01;99395.97;;;3.85;95.02
22653;BME280;11493;43.344;26.226;2023-02-23T06:14:28;99394.91;;;4.07;94.79
22653;BME280;11493;43.344;26.226;2023-02-23T06:16:55;99399.56;;;4.26;93.87
22653;BME280;11493;43.344;26.226;2023-02-23T06:19:22;99387.84;;;4.31;93.44
22653;BME280;11493;43.344;26.226;2023-02-23T06:21:50;99394.41;;;4.35;93.12
22653;BME280;11493;43.344;26.226;2023-02-23T06:24:19;99398.22;;;4.39;93.10
22653;BME280;11493;43.344;26.226;2023-02-23T06:26:45;99403.13;;;4.42;93.88
22653;BME280;11493;43.344;26.226;2023-02-23T06:29:12;99408.00;;;4.55;93.58
22653;BME280;11493;43.344;26.226;2023-02-23T06:31:40;99402.25;;;4.57;93.11
22653;BME280;11493;43.344;26.226;2023-02-23T06:34:07;99413.44;;;4.71;93.49
22653;BME280;11493;43.344;26.226;2023-02-23T06:36:35;99415.88;;;4.87;93.48
22653;BME280;11493;43.344;26.226;2023-02-23T06:39:04;99420.75;;;5.01;92.95
22653;BME280;11493;43.344;26.226;2023-02-23T06:41:31;99421.00;;;5.14;92.94
22653;BME280;11493;43.344;26.226;2023-02-23T06:43:58;99426.66;;;5.28;93.23
22653;BME280;11493;43.344;26.226;2023-02-23T06:46:25;99428.28;;;5.34;94.18
22653;BME280;11493;43.344;26.226;2023-02-23T06:48:56;99426.91;;;5.37;93.76
22653;BME280;11493;43.344;26.226;2023-02-23T06:51:23;99409.69;;;5.41;94.17
22653;BME280;11493;43.344;26.226;2023-02-23T06:53:50;99427.88;;;5.66;94.61
22653;BME280;11493;43.344;26.226;2023-02-23T06:56:20;99421.25;;;5.82;94.25
22653;BME280;11493;43.344;26.226;2023-02-23T06:58:47;99417.41;;;5.93;93.77
22653;BME280;11493;43.344;26.226;2023-02-23T07:01:15;99421.16;;;6.03;93.82
22653;BME280;11493;43.344;26.226;2023-02-23T07:03:42;99421.28;;;6.21;93.40
22653;BME280;11493;43.344;26.226;2023-02-23T07:06:10;99423.09;;;6.36;92.99
22653;BME280;11493;43.344;26.226;2023-02-23T07:08:36;99428.78;;;6.45;93.20
22653;BME280;11493;43.344;26.226;2023-02-23T07:11:08;99437.34;;;6.67;93.08
22653;BME280;11493;43.344;26.226;2023-02-23T07:13:36;99424.88;;;6.85;92.70
22653;BME280;11493;43.344;26.226;2023-02-23T07:16:03;99422.50;;;7.02;91.26
22653;BME280;11493;43.344;26.226;2023-02-23T07:18:30;99437.91;;;7.22;91.31
22653;BME280;11493;43.344;26.226;2023-02-23T07:20:57;99424.59;;;7.39;91.25
22653;BME280;11493;43.344;26.226;2023-02-23T07:23:24;99428.91;;;7.64;90.36
22653;BME280;11493;43.344;26.226;2023-02-23T07:25:52;99429.81;;;7.78;88.72
22653;BME280;11493;43.344;26.226;2023-02-23T07:28:22;99444.69;;;8.15;87.82
22653;BME280;11493;43.344;26.226;2023-02-23T07:30:54;99436.31;;;8.44;87.44
22653;BME280;11493;43.344;26.226;2023-02-23T07:33:23;99442.94;;;8.75;85.11
22653;BME280;11493;43.344;26.226;2023-02-23T07:35:50;99438.31;;;8.89;84.25
22653;BME280;11493;43.344;26.226;2023-02-23T07:38:17;99434.53;;;8.99;83.52
22653;BME280;11493;43.344;26.226;2023-02-23T07:40:44;99431.41;;;9.06;83.55
22653;BME280;11493;43.344;26.226;2023-02-23T07:43:11;99438.44;;;9.26;83.05
22653;BME280;11493;43.344;26.226;2023-02-23T07:45:38;99437.75;;;9.34;83.17
22653;BME280;11493;43.344;26.226;2023-02-23T07:48:05;99437.03;;;9.42;83.03
22653;BME280;11493;43.344;26.226;2023-02-23T07:50:32;99434.41;;;9.50;82.70
22653;BME280;11493;43.344;26.226;2023-02-23T07:53:00;99424.91;;;9.70;82.73
22653;BME280;11493;43.344;26.226;2023-02-23T07:55:26;99434.47;;;9.86;82.12
22653;BME280;11493;43.344;26.226;2023-02-23T07:57:54;99438.63;;;9.98;82.22
22653;BME280;11493;43.344;26.226;2023-02-23T08:00:21;99429.44;;;10.02;81.81
22653;BME280;11493;43.344;26.226;2023-02-23T08:02:47;99438.72;;;10.20;81.27
22653;BME280;11493;43.344;26.226;2023-02-23T08:05:15;99432.78;;;10.27;81.35
22653;BME280;11493;43.344;26.226;2023-02-23T08:07:42;99432.09;;;10.43;80.79
22653;BME280;11493;43.344;26.226;2023-02-23T08:10:09;99448.06;;;10.55;80.42
22653;BME280;11493;43.344;26.226;2023-02-23T08:12:36;99439.50;;;10.57;79.53
22653;BME280;11493;43.344;26.226;2023-02-23T08:15:04;99442.97;;;10.48;80.28
22653;BME280;11493;43.344;26.226;2023-02-23T08:17:38;99433.72;;;10.44;79.85
22653;BME280;11493;43.344;26.226;2023-02-23T08:20:06;99452.44;;;10.56;79.25
22653;BME280;11493;43.344;26.226;2023-02-23T08:22:34;99455.56;;;10.63;79.69
22653;BME280;11493;43.344;26.226;2023-02-23T08:25:16;99452.81;;;10.63;79.72
22653;BME280;11493;43.344;26.226;2023-02-23T08:27:43;99445.09;;;10.51;80.47
22653;BME280;11493;43.344;26.226;2023-02-23T08:30:11;99443.63;;;10.68;79.58
22653;BME280;11493;43.344;26.226;2023-02-23T08:32:39;99447.13;;;10.82;79.45
22653;BME280;11493;43.344;26.226;2023-02-23T08:35:08;99446.13;;;10.78;79.62
22653;BME280;11493;43.344;26.226;2023-02-23T08:37:36;99459.50;;;10.71;79.93
22653;BME280;11493;43.344;26.226;2023-02-23T08:40:03;99458.19;;;10.91;79.40
22653;BME280;11493;43.344;26.226;2023-02-23T08:42:30;99445.81;;;10.79;79.34
22653;BME280;11493;43.344;26.226;2023-02-23T08:44:57;99457.88;;;10.70;80.61
22653;BME280;11493;43.344;26.226;2023-02-23T08:47:27;99465.25;;;10.83;79.36
22653;BME280;11493;43.344;26.226;2023-02-23T08:49:54;99443.50;;;10.73;79.66
22653;BME280;11493;43.344;26.226;2023-02-23T08:52:21;99471.22;;;10.99;79.65
22653;BME280;11493;43.344;26.226;2023-02-23T08:54:47;99459.00;;;11.13;79.28
22653;BME280;11493;43.344;26.226;2023-02-23T08:57:14;99468.59;;;11.25;78.21
22653;BME280;11493;43.344;26.226;2023-02-23T08:59:41;99459.91;;;11.40;77.17
22653;BME280;11493;43.344;26.226;2023-02-23T09:02:12;99479.50;;;11.69;76.12
22653;BME280;11493;43.344;26.226;2023-02-23T09:04:40;99462.47;;;11.67;74.62
22653;BME280;11493;43.344;26.226;2023-02-23T09:07:15;99477.97;;;11.86;74.72
22653;BME280;11493;43.344;26.226;2023-02-23T09:09:43;99470.34;;;11.82;74.58
22653;BME280;11493;43.344;26.226;2023-02-23T09:12:09;99474.16;;;11.73;75.31
22653;BME280;11493;43.344;26.226;2023-02-23T09:14:36;99462.63;;;11.62;74.91
22653;BME280;11493;43.344;26.226;2023-02-23T09:17:03;99481.88;;;12.02;74.39
22653;BME280;11493;43.344;26.226;2023-02-23T09:19:30;99479.78;;;12.07;74.30
22653;BME280;11493;43.344;26.226;2023-02-23T09:21:57;99477.06;;;12.16;73.63
22653;BME280;11493;43.344;26.226;2023-02-23T09:24:24;99466.97;;;12.03;73.52
22653;BME280;11493;43.344;26.226;2023-02-23T09:26:51;99470.22;;;12.05;74.65
22653;BME280;11493;43.344;26.226;2023-02-23T09:29:19;99477.69;;;12.13;74.29
22653;BME280;11493;43.344;26.226;2023-02-23T09:31:46;99481.16;;;12.44;73.39
22653;BME280;11493;43.344;26.226;2023-02-23T09:34:14;99479.53;;;12.52;72.25
22653;BME280;11493;43.344;26.226;2023-02-23T09:36:41;99477.59;;;12.44;72.67
22653;BME280;11493;43.344;26.226;2023-02-23T09:39:11;99469.94;;;12.67;72.20
22653;BME280;11493;43.344;26.226;2023-02-23T09:41:51;99469.13;;;12.83;71.08
22653;BME280;11493;43.344;26.226;2023-02-23T09:47:30;99472.69;;;12.93;70.00
22653;BME280;11493;43.344;26.226;2023-02-23T09:50:03;99471.06;;;12.92;69.97
22653;BME280;11493;43.344;26.226;2023-02-23T09:52:39;99463.59;;;12.83;70.82
22653;BME280;11493;43.344;26.226;2023-02-23T09:55:10;99470.88;;;13.05;70.80
22653;BME280;11493;43.344;26.226;2023-02-23T09:57:43;99468.38;;;13.38;69.21
22653;BME280;11493;43.344;26.226;2023-02-23T10:05:42;99458.34;;;13.72;67.64
22653;BME280;11493;43.344;26.226;2023-02-23T10:08:24;99463.56;;;14.03;66.07
22653;BME280;11493;43.344;26.226;2023-02-23T10:11:11;99449.03;;;13.76;66.41
22653;BME280;11493;43.344;26.226;2023-02-23T10:20:17;99456.59;;;13.97;65.53
22653;BME280;11493;43.344;26.226;2023-02-23T10:22:21;99460.00;;;13.64;67.30
22653;BME280;11493;43.344;26.226;2023-02-23T10:24:57;99460.94;;;13.68;67.55
22653;BME280;11493;43.344;26.226;2023-02-23T10:27:36;99459.41;;;13.50;67.93
22653;BME280;11493;43.344;26.226;2023-02-23T10:30:22;99457.84;;;13.32;69.18
22653;BME280;11493;43.344;26.226;2023-02-23T10:33:09;99437.69;;;13.31;68.63
22653;BME280;11493;43.344;26.226;2023-02-23T10:35:38;99446.25;;;13.38;68.86
22653;BME280;11493;43.344;26.226;2023-02-23T10:38:15;99439.38;;;13.53;68.22
22653;BME280;11493;43.344;26.226;2023-02-23T10:41:02;99454.25;;;13.78;68.01
22653;BME280;11493;43.344;26.226;2023-02-23T10:43:31;99446.53;;;13.92;67.55
22653;BME280;11493;43.344;26.226;2023-02-23T10:45:58;99438.31;;;14.04;66.70
22653;BME280;11493;43.344;26.226;2023-02-23T10:48:35;99424.34;;;14.22;65.49
22653;BME280;11493;43.344;26.226;2023-02-23T10:51:06;99442.59;;;14.43;65.37
22653;BME280;11493;43.344;26.226;2023-02-23T10:53:40;99437.88;;;14.65;64.78
22653;BME280;11493;43.344;26.226;2023-02-23T10:56:12;99437.06;;;14.64;64.18
22653;BME280;11493;43.344;26.226;2023-02-23T10:58:49;99423.56;;;14.63;64.56
22653;BME280;11493;43.344;26.226;2023-02-23T11:04:20;99409.66;;;14.51;64.19
22653;BME280;11493;43.344;26.226;2023-02-23T11:06:51;99408.50;;;14.52;64.82
22653;BME280;11493;43.344;26.226;2023-02-23T11:09:32;99401.19;;;14.26;65.87
22653;BME280;11493;43.344;26.226;2023-02-23T11:14:57;99413.75;;;14.03;66.52
22653;BME280;11493;43.344;26.226;2023-02-23T11:17:35;99411.66;;;14.00;66.97
22653;BME280;11493;43.344;26.226;2023-02-23T11:22:40;99417.66;;;14.02;66.87
22653;BME280;11493;43.344;26.226;2023-02-23T11:25:19;99421.63;;;14.13;66.10
22653;BME280;11493;43.344;26.226;2023-02-23T11:27:49;99402.25;;;13.92;67.13
22653;BME280;11493;43.344;26.226;2023-02-23T11:30:27;99408.59;;;14.13;67.25
22653;BME280;11493;43.344;26.226;2023-02-23T11:32:59;99406.19;;;14.33;66.46
22653;BME280;11493;43.344;26.226;2023-02-23T11:35:36;99411.09;;;14.27;66.25
22653;BME280;11493;43.344;26.226;2023-02-23T11:38:24;99416.66;;;14.27;65.78
22653;BME280;11493;43.344;26.226;2023-02-23T11:41:22;99403.69;;;14.19;66.55
22653;BME280;11493;43.344;26.226;2023-02-23T11:43:55;99407.88;;;14.25;66.22
22653;BME280;11493;43.344;26.226;2023-02-23T11:46:23;99404.56;;;14.32;65.70
22653;BME280;11493;43.344;26.226;2023-02-23T11:51:33;99412.16;;;14.43;65.16
22653;BME280;11493;43.344;26.226;2023-02-23T11:54:02;99406.78;;;14.38;65.23
22653;BME280;11493;43.344;26.226;2023-02-23T11:56:33;99417.88;;;14.38;65.99
22653;BME280;11493;43.344;26.226;2023-02-23T11:59:06;99413.78;;;14.44;65.11
22653;BME280;11493;43.344;26.226;2023-02-23T12:01:43;99422.69;;;14.50;65.00
22653;BME280;11493;43.344;26.226;2023-02-23T12:04:35;99404.13;;;14.51;64.46
22653;BME280;11493;43.344;26.226;2023-02-23T12:07:37;99416.81;;;14.52;64.92
22653;BME280;11493;43.344;26.226;2023-02-23T12:10:17;99403.28;;;14.71;64.54
22653;BME280;11493;43.344;26.226;2023-02-23T12:15:59;99410.94;;;14.53;64.35
22653;BME280;11493;43.344;26.226;2023-02-23T12:21:20;99409.00;;;14.24;65.62
22653;BME280;11493;43.344;26.226;2023-02-23T12:23:59;99395.31;;;14.28;64.72
22653;BME280;11493;43.344;26.226;2023-02-23T12:26:29;99406.25;;;14.24;65.41
22653;BME280;11493;43.344;26.226;2023-02-23T12:29:09;99411.94;;;14.49;64.26
22653;BME280;11493;43.344;26.226;2023-02-23T12:31:50;99406.63;;;14.43;64.46
22653;BME280;11493;43.344;26.226;2023-02-23T12:34:27;99427.78;;;14.39;64.07
22653;BME280;11493;43.344;26.226;2023-02-23T12:37:02;99386.41;;;14.22;63.95
22653;BME280;11493;43.344;26.226;2023-02-23T12:39:40;99424.19;;;14.18;64.60
22653;BME280;11493;43.344;26.226;2023-02-23T12:44:58;99431.41;;;13.90;65.04
22653;BME280;11493;43.344;26.226;2023-02-23T12:47:45;99424.72;;;14.11;64.36
22653;BME280;11493;43.344;26.226;2023-02-23T12:50:33;99428.50;;;13.86;64.55
22653;BME280;11493;43.344;26.226;2023-02-23T12:53:40;99421.94;;;13.61;65.59
22653;BME280;11493;43.344;26.226;2023-02-23T12:56:32;99431.59;;;13.46;66.26
22653;BME280;11493;43.344;26.226;2023-02-23T13:21:39;99430.88;;;13.29;67.23
22653;BME280;11493;43.344;26.226;2023-02-23T13:27:00;99436.72;;;13.36;67.12
22653;BME280;11493;43.344;26.226;2023-02-23T13:29:38;99436.09;;;13.22;67.40
22653;BME280;11493;43.344;26.226;2023-02-23T13:32:15;99430.75;;;13.17;67.42
22653;BME280;11493;43.344;26.226;2023-02-23T13:37:18;99430.75;;;12.99;67.99
22653;BME280;11493;43.344;26.226;2023-02-23T13:45:30;99456.09;;;13.10;67.81
22653;BME280;11493;43.344;26.226;2023-02-23T13:53:36;99466.69;;;12.65;68.97
22653;BME280;11493;43.344;26.226;2023-02-23T13:56:14;99454.22;;;12.50;69.51
22653;BME280;11493;43.344;26.226;2023-02-23T13:58:49;99456.78;;;12.72;68.48
22653;BME280;11493;43.344;26.226;2023-02-23T14:01:21;99460.88;;;12.49;69.03
22653;BME280;11493;43.344;26.226;2023-02-23T14:03:55;99477.59;;;12.53;69.13
22653;BME280;11493;43.344;26.226;2023-02-23T14:06:25;99469.66;;;12.60;68.41
22653;BME280;11493;43.344;26.226;2023-02-23T14:09:06;99476.44;;;12.45;69.08
22653;BME280;11493;43.344;26.226;2023-02-23T14:11:50;99475.94;;;12.26;69.60
22653;BME280;11493;43.344;26.226;2023-02-23T14:22:22;99459.31;;;11.91;70.61
22653;BME280;11493;43.344;26.226;2023-02-23T14:28:01;99481.88;;;11.84;70.66
22653;BME280;11493;43.344;26.226;2023-02-23T14:41:24;99464.28;;;11.41;71.47
22653;BME280;11493;43.344;26.226;2023-02-23T14:44:06;99456.22;;;11.44;71.37
22653;BME280;11493;43.344;26.226;2023-02-23T14:47:14;99458.81;;;11.49;70.54
22653;BME280;11493;43.344;26.226;2023-02-23T14:49:59;99467.91;;;11.50;70.26
22653;BME280;11493;43.344;26.226;2023-02-23T14:52:31;99468.50;;;11.38;70.81
22653;BME280;11493;43.344;26.226;2023-02-23T14:57:40;99477.84;;;11.29;70.50
22653;BME280;11493;43.344;26.226;2023-02-23T15:03:00;99481.47;;;11.07;70.67
22653;BME280;11493;43.344;26.226;2023-02-23T15:05:46;99480.53;;;11.11;70.27
22653;BME280;11493;43.344;26.226;2023-02-23T15:08:19;99485.47;;;11.01;70.49
22653;BME280;11493;43.344;26.226;2023-02-23T15:10:57;99488.28;;;10.87;70.62
22653;BME280;11493;43.344;26.226;2023-02-23T15:13:31;99489.72;;;10.84;70.96
22653;BME280;11493;43.344;26.226;2023-02-23T15:16:04;99484.09;;;10.67;71.41
22653;BME280;11493;43.344;26.226;2023-02-23T15:18:38;99490.53;;;10.63;71.60
22653;BME280;11493;43.344;26.226;2023-02-23T15:21:11;99494.63;;;10.51;72.07
22653;BME280;11493;43.344;26.226;2023-02-23T15:23:43;99498.19;;;10.52;71.91
22653;BME280;11493;43.344;26.226;2023-02-23T15:26:37;99494.31;;;10.31;72.73
22653;BME280;11493;43.344;26.226;2023-02-23T15:29:16;99505.53;;;10.20;73.34
22653;BME280;11493;43.344;26.226;2023-02-23T15:31:46;99504.97;;;10.18;73.49
22653;BME280;11493;43.344;26.226;2023-02-23T15:34:25;99505.72;;;10.24;72.98
22653;BME280;11493;43.344;26.226;2023-02-23T15:39:50;99506.63;;;9.92;74.44
22653;BME280;11493;43.344;26.226;2023-02-23T15:45:02;99516.50;;;9.66;75.69
22653;BME280;11493;43.344;26.226;2023-02-23T15:47:34;99510.91;;;9.57;76.02